createdAt,value
2023-02-15T00:02:44.287Z,12.80
2023-02-15T00:05:50.931Z,10.37
2023-02-15T00:08:57.633Z,9.63
2023-02-15T00:12:04.405Z,8.37
2023-02-15T00:15:10.782Z,8.13
2023-02-15T00:18:18.813Z,10.30
2023-02-15T00:21:25.335Z,14.37
2023-02-15T00:24:31.640Z,13.53
2023-02-15T00:27:38.353Z,12.37
2023-02-15T00:30:45.331Z,9.13
2023-02-15T00:33:53.204Z,11.97
2023-02-15T00:36:59.676Z,13.00
2023-02-15T00:40:07.518Z,10.17
2023-02-15T00:43:14.024Z,11.20
2023-02-15T00:46:20.037Z,10.23
2023-02-15T00:49:27.820Z,12.13
2023-02-15T00:52:34.164Z,13.80
2023-02-15T00:55:41.394Z,12.57
2023-02-15T00:58:48.104Z,10.87
2023-02-15T01:01:54.595Z,9.17
2023-02-15T01:05:02.577Z,8.13
2023-02-15T01:08:09.390Z,8.90
2023-02-15T01:11:23.016Z,11.43
2023-02-15T01:14:29.479Z,9.40
2023-02-15T01:17:35.708Z,10.27
2023-02-15T01:20:43.296Z,8.60
2023-02-15T01:23:49.693Z,9.63
2023-02-15T01:26:56.068Z,10.10
2023-02-15T01:30:02.341Z,8.13
2023-02-15T01:33:08.670Z,9.27
2023-02-15T01:36:18.484Z,11.00
2023-02-15T01:39:25.071Z,9.00
2023-02-15T01:42:33.162Z,7.70
2023-02-15T01:45:39.917Z,7.43
2023-02-15T01:48:48.874Z,7.17
2023-02-15T01:51:56.693Z,6.97
2023-02-15T01:55:03.602Z,9.13
2023-02-15T01:58:10.253Z,8.83
2023-02-15T02:01:16.791Z,8.43
2023-02-15T02:04:31.451Z,7.70
2023-02-15T02:07:42.825Z,7.87
2023-02-15T02:10:49.196Z,6.40
2023-02-15T02:13:57.425Z,10.63
2023-02-15T02:17:12.089Z,9.40
2023-02-15T02:20:59.495Z,11.43
2023-02-15T02:24:33.685Z,9.17
2023-02-15T02:27:43.689Z,9.73
2023-02-15T02:31:23.212Z,11.07
2023-02-15T02:34:36.473Z,12.77
2023-02-15T02:37:52.857Z,8.17
2023-02-15T02:41:10.806Z,8.13
2023-02-15T02:44:21.596Z,9.77
2023-02-15T02:47:33.132Z,7.17
2023-02-15T02:50:42.108Z,8.43
2023-02-15T02:53:48.598Z,10.97
2023-02-15T02:56:57.052Z,6.97
2023-02-15T03:00:06.628Z,8.10
2023-02-15T03:03:16.926Z,7.70
2023-02-15T03:06:30.731Z,7.03
2023-02-15T03:09:45.456Z,6.83
2023-02-15T03:12:53.355Z,7.10
2023-02-15T03:16:18.381Z,6.90
2023-02-15T03:19:29.938Z,8.60
2023-02-15T03:22:40.800Z,6.90
2023-02-15T03:25:53.757Z,9.13
2023-02-15T03:29:03.000Z,8.70
2023-02-15T03:32:13.428Z,10.43
2023-02-15T03:35:23.692Z,8.87
2023-02-15T03:38:38.823Z,9.97
2023-02-15T03:41:52.263Z,8.03
2023-02-15T03:45:02.013Z,10.37
2023-02-15T03:48:09.437Z,6.57
2023-02-15T03:51:39.207Z,8.00
2023-02-15T03:54:48.191Z,9.27
2023-02-15T03:58:12.104Z,9.00
2023-02-15T04:01:45.685Z,8.93
2023-02-15T04:04:52.305Z,12.77
2023-02-15T04:07:58.735Z,9.57
2023-02-15T04:11:05.389Z,11.53
2023-02-15T04:14:25.308Z,11.40
2023-02-15T04:17:31.898Z,11.47
2023-02-15T04:20:55.786Z,10.20
2023-02-15T04:24:19.879Z,9.00
2023-02-15T04:27:27.677Z,7.17
2023-02-15T04:30:34.094Z,7.20
2023-02-15T04:33:40.323Z,11.00
2023-02-15T04:36:46.617Z,6.87
2023-02-15T04:39:52.854Z,6.70
2023-02-15T04:43:00.747Z,14.97
2023-02-15T04:46:07.456Z,9.80
2023-02-15T04:49:13.966Z,13.63
2023-02-15T04:52:20.015Z,15.47
2023-02-15T04:55:27.819Z,12.73
2023-02-15T04:58:36.213Z,8.57
2023-02-15T05:01:42.636Z,10.40
2023-02-15T05:04:48.917Z,9.00
2023-02-15T05:07:55.430Z,10.13
2023-02-15T05:11:02.062Z,14.73
2023-02-15T05:14:10.035Z,15.17
2023-02-15T05:17:16.395Z,15.87
2023-02-15T05:20:22.661Z,21.03
2023-02-15T05:23:29.334Z,26.83
2023-02-15T05:26:53.226Z,20.13
2023-02-15T05:30:01.372Z,16.10
2023-02-15T05:33:08.342Z,25.50
2023-02-15T05:36:14.928Z,23.33
2023-02-15T05:39:21.476Z,13.80
2023-02-15T05:42:27.854Z,15.37
2023-02-15T05:45:35.786Z,20.43
2023-02-15T05:48:42.281Z,18.57
2023-02-15T05:51:48.477Z,16.53
2023-02-15T05:54:55.265Z,27.00
2023-02-15T05:58:01.607Z,20.73
2023-02-15T06:01:15.789Z,20.27
2023-02-15T06:04:22.227Z,18.93
2023-02-15T06:07:28.813Z,21.33
2023-02-15T06:10:34.999Z,23.47
2023-02-15T06:13:41.126Z,24.20
2023-02-15T06:16:48.769Z,36.90
2023-02-15T06:19:55.145Z,40.33
2023-02-15T06:23:01.193Z,48.70
2023-02-15T06:26:07.171Z,43.93
2023-02-15T06:29:13.470Z,39.80
2023-02-15T06:32:21.067Z,38.20
2023-02-15T06:35:27.754Z,34.27
2023-02-15T06:38:34.127Z,32.87
2023-02-15T06:41:41.422Z,34.57
2023-02-15T06:44:47.898Z,28.63
2023-02-15T06:47:55.543Z,19.37
2023-02-15T06:51:01.658Z,17.43
2023-02-15T06:54:08.192Z,16.70
2023-02-15T06:57:15.012Z,18.43
2023-02-15T07:00:23.329Z,23.43
2023-02-15T07:03:31.241Z,30.83
2023-02-15T07:06:37.828Z,38.80
2023-02-15T07:09:44.176Z,28.33
2023-02-15T07:12:50.383Z,25.17
2023-02-15T07:15:56.398Z,26.13
2023-02-15T07:19:04.096Z,22.30
2023-02-15T07:22:10.690Z,26.97
2023-02-15T07:25:17.224Z,22.30
2023-02-15T07:28:23.195Z,28.00
2023-02-15T07:31:29.486Z,28.90
2023-02-15T07:34:37.014Z,33.07
2023-02-15T07:37:43.146Z,22.07
2023-02-15T07:40:49.732Z,13.07
2023-02-15T07:43:56.118Z,17.63
2023-02-15T07:47:02.449Z,21.23
2023-02-15T07:50:11.163Z,20.63
2023-02-15T07:53:17.542Z,24.13
2023-02-15T07:56:23.912Z,24.67
2023-02-15T07:59:29.976Z,28.33
2023-02-15T08:02:38.187Z,20.40
2023-02-15T08:05:47.214Z,16.53
2023-02-15T08:08:54.173Z,20.00
2023-02-15T08:12:00.375Z,20.23
2023-02-15T08:15:07.320Z,17.63
2023-02-15T08:18:13.967Z,14.37
2023-02-15T08:21:24.541Z,13.17
2023-02-15T08:24:33.386Z,13.40
2023-02-15T08:27:39.871Z,14.03
2023-02-15T08:30:46.358Z,12.00
2023-02-15T08:33:54.331Z,8.93
2023-02-15T08:37:02.357Z,6.80
2023-02-15T08:40:09.974Z,9.60
2023-02-15T08:43:16.200Z,4.47
2023-02-15T08:46:24.415Z,8.80
2023-02-15T08:49:30.934Z,8.20
2023-02-15T08:52:38.905Z,8.47
2023-02-15T08:55:44.887Z,7.67
2023-02-15T08:58:51.299Z,10.50
2023-02-15T09:01:58.105Z,10.50
2023-02-15T09:05:04.953Z,8.23
2023-02-15T09:08:12.309Z,10.97
2023-02-15T09:11:25.056Z,8.03
2023-02-15T09:14:31.558Z,8.87
2023-02-15T09:17:37.755Z,10.77
2023-02-15T09:20:43.835Z,9.77
2023-02-15T09:23:52.669Z,8.77
2023-02-15T09:26:58.789Z,8.07
2023-02-15T09:30:05.222Z,10.93
2023-02-15T09:33:11.632Z,8.07
2023-02-15T09:36:19.841Z,11.33
2023-02-15T09:39:29.159Z,8.80
2023-02-15T09:42:58.862Z,8.63
2023-02-15T09:46:20.939Z,9.07
2023-02-15T09:49:40.497Z,11.50
2023-02-15T09:53:08.049Z,10.30
2023-02-15T09:56:25.275Z,12.30
2023-02-15T09:59:44.374Z,9.83
2023-02-15T10:03:06.946Z,9.50
2023-02-15T10:06:34.091Z,10.83
2023-02-15T10:09:53.848Z,7.07
2023-02-15T10:13:15.513Z,7.47
2023-02-15T10:16:30.805Z,7.60
2023-02-15T10:19:45.651Z,5.73
2023-02-15T10:23:10.781Z,6.27
2023-02-15T10:26:21.204Z,6.67
2023-02-15T10:29:34.261Z,6.77
2023-02-15T10:32:50.972Z,7.80
2023-02-15T10:36:08.880Z,6.30
2023-02-15T10:39:22.353Z,4.93
2023-02-15T10:42:37.939Z,6.30
2023-02-15T10:45:55.559Z,3.93
2023-02-15T10:49:21.679Z,26.07
2023-02-15T10:52:35.774Z,9.83
2023-02-15T10:55:53.634Z,8.63
2023-02-15T10:59:22.126Z,9.13
2023-02-15T11:02:42.651Z,9.40
2023-02-15T11:06:00.411Z,6.40
2023-02-15T11:09:12.800Z,8.67
2023-02-15T11:12:24.788Z,9.83
2023-02-15T11:15:35.681Z,7.17
2023-02-15T11:18:49.011Z,8.47
2023-02-15T11:22:00.342Z,7.33
2023-02-15T11:25:19.736Z,9.97
2023-02-15T11:28:32.124Z,7.27
2023-02-15T11:31:46.174Z,7.27
2023-02-15T11:34:58.246Z,6.90
2023-02-15T11:38:12.370Z,8.87
2023-02-15T11:41:25.351Z,7.10
2023-02-15T11:44:37.295Z,5.60
2023-02-15T11:47:43.492Z,6.13
2023-02-15T11:50:50.892Z,4.70
2023-02-15T11:53:58.009Z,6.33
2023-02-15T11:57:16.888Z,7.37
2023-02-15T12:00:37.076Z,8.07
2023-02-15T12:03:49.199Z,6.70
2023-02-15T12:07:02.736Z,5.57
2023-02-15T12:10:21.661Z,4.73
2023-02-15T12:13:28.030Z,11.13
2023-02-15T12:16:43.348Z,8.93
2023-02-15T12:19:53.610Z,13.10
2023-02-15T12:23:06.142Z,11.60
2023-02-15T12:26:13.444Z,11.90
2023-02-15T12:29:23.997Z,9.27
2023-02-15T12:32:33.133Z,7.07
2023-02-15T12:35:39.275Z,6.57
2023-02-15T12:39:05.226Z,12.77
2023-02-15T12:42:20.454Z,16.53
2023-02-15T12:45:30.226Z,11.07
2023-02-15T12:48:40.787Z,6.70
2023-02-15T12:51:50.449Z,5.83
2023-02-15T12:55:12.046Z,7.77
2023-02-15T12:58:19.822Z,9.93
2023-02-15T13:01:27.820Z,7.47
2023-02-15T13:04:34.653Z,5.73
2023-02-15T13:07:40.645Z,7.13
2023-02-15T13:10:58.359Z,8.53
2023-02-15T13:14:06.140Z,8.70
2023-02-15T13:17:14.485Z,8.17
2023-02-15T13:20:23.960Z,6.50
2023-02-15T13:23:33.278Z,8.20
2023-02-15T13:26:45.833Z,9.20
2023-02-15T13:29:55.005Z,6.53
2023-02-15T13:33:05.186Z,7.93
2023-02-15T13:36:19.172Z,9.90
2023-02-15T13:39:31.425Z,10.93
2023-02-15T13:42:42.685Z,9.23
2023-02-15T13:46:03.737Z,10.33
2023-02-15T13:49:21.243Z,9.70
2023-02-15T13:52:30.981Z,8.77
2023-02-15T13:55:48.096Z,8.47
2023-02-15T13:59:22.213Z,9.40
2023-02-15T14:02:54.701Z,11.90
2023-02-15T14:06:21.753Z,7.53
2023-02-15T14:09:42.859Z,16.50
2023-02-15T14:13:03.887Z,13.73
2023-02-15T14:16:19.698Z,10.07
2023-02-15T14:19:33.519Z,13.37
2023-02-15T14:22:44.210Z,8.67
2023-02-15T14:25:57.524Z,10.33
2023-02-15T14:29:16.222Z,12.90
2023-02-15T14:32:32.393Z,17.53
2023-02-15T14:35:39.530Z,19.60
2023-02-15T14:38:58.111Z,10.37
2023-02-15T14:42:10.508Z,13.13
2023-02-15T14:45:21.642Z,13.20
2023-02-15T14:48:33.704Z,12.97
2023-02-15T14:52:01.108Z,10.80
2023-02-15T14:55:09.454Z,9.33
2023-02-15T14:58:16.131Z,9.97
2023-02-15T15:01:29.064Z,13.97
2023-02-15T15:04:40.375Z,12.53
2023-02-15T15:07:49.326Z,12.13
2023-02-15T15:10:56.703Z,12.97
2023-02-15T15:14:03.472Z,11.20
2023-02-15T15:17:13.905Z,15.43
2023-02-15T15:20:42.977Z,12.27
2023-02-15T15:23:49.869Z,14.63
2023-02-15T15:27:46.240Z,13.47
2023-02-15T15:30:53.264Z,14.57
2023-02-15T15:34:35.286Z,16.27
2023-02-15T15:38:01.657Z,15.77
2023-02-15T15:41:21.107Z,14.13
2023-02-15T15:45:05.585Z,14.47
2023-02-15T15:48:31.905Z,13.47
2023-02-15T15:51:43.794Z,16.53
2023-02-15T15:54:57.068Z,20.30
2023-02-15T15:58:06.550Z,21.20
2023-02-15T16:01:14.889Z,22.87
2023-02-15T16:04:27.465Z,23.73
2023-02-15T16:07:34.119Z,18.83
2023-02-15T16:10:43.151Z,17.13
2023-02-15T16:13:49.807Z,16.33
2023-02-15T16:16:59.499Z,18.87
2023-02-15T16:20:13.793Z,21.53
2023-02-15T16:23:49.912Z,26.93
2023-02-15T16:27:14.040Z,27.07
2023-02-15T16:30:24.561Z,27.43
2023-02-15T16:33:38.640Z,21.60
2023-02-15T16:36:44.878Z,27.67
2023-02-15T16:39:52.451Z,25.10
2023-02-15T16:43:04.171Z,20.60
2023-02-15T16:46:14.618Z,21.00
2023-02-15T16:49:23.353Z,20.07
2023-02-15T16:52:31.390Z,26.13
2023-02-15T16:55:42.236Z,35.43
2023-02-15T16:58:53.114Z,31.20
2023-02-15T17:02:00.285Z,29.60
2023-02-15T17:05:24.918Z,27.47
2023-02-15T17:08:33.437Z,31.50
2023-02-15T17:11:43.650Z,30.20
2023-02-15T17:14:57.118Z,43.03
2023-02-15T17:18:07.119Z,38.50
2023-02-15T17:21:16.317Z,35.67
2023-02-15T17:24:33.895Z,32.00
2023-02-15T17:27:40.598Z,34.23
2023-02-15T17:30:49.724Z,34.23
2023-02-15T17:33:56.973Z,33.93
2023-02-15T17:37:03.505Z,34.53
2023-02-15T17:40:21.074Z,31.53
2023-02-15T17:43:27.467Z,25.90
2023-02-15T17:46:39.174Z,24.27
2023-02-15T17:49:46.608Z,21.73
2023-02-15T17:52:53.395Z,27.57
2023-02-15T17:56:00.070Z,32.83
2023-02-15T17:59:07.759Z,38.97
2023-02-15T18:02:33.065Z,35.07
2023-02-15T18:05:57.076Z,38.60
2023-02-15T18:09:21.270Z,33.90
2023-02-15T18:12:29.807Z,38.17
2023-02-15T18:15:36.648Z,33.03
2023-02-15T18:18:46.229Z,32.37
2023-02-15T18:21:55.788Z,31.50
2023-02-15T18:25:02.388Z,39.23
2023-02-15T18:28:09.647Z,49.03
2023-02-15T18:31:16.882Z,45.33
2023-02-15T18:34:29.261Z,31.73
2023-02-15T18:37:35.588Z,34.70
2023-02-15T18:40:42.186Z,43.57
2023-02-15T18:43:51.159Z,57.47
2023-02-15T18:46:57.558Z,41.00
2023-02-15T18:50:05.368Z,36.83
2023-02-15T18:53:18.282Z,35.37
2023-02-15T18:56:24.749Z,32.73
2023-02-15T18:59:32.588Z,46.40
2023-02-15T19:02:39.181Z,31.13
2023-02-15T19:05:48.402Z,28.43
2023-02-15T19:08:55.003Z,21.83
2023-02-15T19:12:01.477Z,19.73
2023-02-15T19:15:09.719Z,17.03
2023-02-15T19:18:17.047Z,16.10
2023-02-15T19:21:25.548Z,31.33
2023-02-15T19:24:39.717Z,33.67
2023-02-15T19:27:47.195Z,25.73
2023-02-15T19:30:53.731Z,31.57
2023-02-15T19:33:59.871Z,44.53
2023-02-15T19:37:13.119Z,33.33
2023-02-15T19:40:22.775Z,28.60
2023-02-15T19:43:30.301Z,26.83
2023-02-15T19:46:37.524Z,32.93
2023-02-15T19:49:43.772Z,29.97
2023-02-15T19:52:51.777Z,25.67
2023-02-15T19:55:58.252Z,26.27
2023-02-15T19:59:04.625Z,25.67
2023-02-15T20:02:14.828Z,26.53
2023-02-15T20:05:21.462Z,21.53
2023-02-15T20:08:30.771Z,24.37
2023-02-15T20:11:36.864Z,26.60
2023-02-15T20:14:43.433Z,26.70
2023-02-15T20:17:50.130Z,22.03
2023-02-15T20:20:56.797Z,19.53
2023-02-15T20:24:05.557Z,15.70
2023-02-15T20:27:17.185Z,16.93
2023-02-15T20:30:26.306Z,17.50
2023-02-15T20:33:32.563Z,17.67
2023-02-15T20:36:40.117Z,16.60
2023-02-15T20:39:47.877Z,20.03
2023-02-15T20:42:54.512Z,24.10
2023-02-15T20:46:01.089Z,20.47
2023-02-15T20:49:07.703Z,22.10
2023-02-15T20:52:20.765Z,10.73
2023-02-15T20:55:30.367Z,16.67
2023-02-15T20:58:38.722Z,47.57
2023-02-15T21:01:46.358Z,28.93
2023-02-15T21:04:53.299Z,27.20
2023-02-15T21:07:59.858Z,34.93
2023-02-15T21:11:19.416Z,45.83
2023-02-15T21:14:28.302Z,46.87
2023-02-15T21:17:34.598Z,46.27
2023-02-15T21:20:45.409Z,39.10
2023-02-15T21:23:53.867Z,39.23
2023-02-15T21:27:03.961Z,33.93
2023-02-15T21:30:16.317Z,29.10
2023-02-15T21:33:22.863Z,25.23
2023-02-15T21:36:29.465Z,28.60
2023-02-15T21:39:37.858Z,24.17
2023-02-15T21:43:03.136Z,21.63
2023-02-15T21:46:32.249Z,25.77
2023-02-15T21:49:38.848Z,25.00
2023-02-15T21:52:44.928Z,22.67
2023-02-15T21:55:58.822Z,18.97
2023-02-15T21:59:11.425Z,22.80
2023-02-15T22:02:28.886Z,20.27
2023-02-15T22:05:35.308Z,23.93
2023-02-15T22:08:41.776Z,16.60
2023-02-15T22:11:48.892Z,14.87
2023-02-15T22:14:56.881Z,14.53
2023-02-15T22:18:03.722Z,19.67
2023-02-15T22:21:12.104Z,16.13
2023-02-15T22:24:18.645Z,16.60
2023-02-15T22:27:27.818Z,15.77
2023-02-15T22:30:38.217Z,17.13
2023-02-15T22:33:45.840Z,13.87
2023-02-15T22:36:52.218Z,16.83
2023-02-15T22:39:58.410Z,16.40
2023-02-15T22:43:06.952Z,16.50
2023-02-15T22:46:20.193Z,15.20
2023-02-15T22:49:26.327Z,15.03
2023-02-15T22:52:32.599Z,15.27
2023-02-15T22:55:39.880Z,12.30
2023-02-15T22:58:48.433Z,12.27
2023-02-15T23:01:56.719Z,12.30
2023-02-15T23:05:02.760Z,14.80
2023-02-15T23:08:10.110Z,13.50
2023-02-15T23:11:16.501Z,14.10
2023-02-15T23:14:27.597Z,13.93
2023-02-15T23:17:34.920Z,14.17
2023-02-15T23:20:41.169Z,11.10
2023-02-15T23:23:50.211Z,11.77
2023-02-15T23:27:16.334Z,12.93
2023-02-15T23:30:23.287Z,9.27
2023-02-15T23:33:34.190Z,11.83
2023-02-15T23:36:41.224Z,12.57
2023-02-15T23:40:05.064Z,12.50
2023-02-15T23:43:21.142Z,14.37
2023-02-15T23:46:30.276Z,19.80
2023-02-15T23:49:38.138Z,14.80
2023-02-15T23:52:44.270Z,16.20
2023-02-15T23:55:50.682Z,16.80
2023-02-15T23:58:56.718Z,9.57
